Time;durP1;ratioP1;P1;durP2;ratioP2;P2;SDS_P1;SDS_P2;PMS_P1;PMS_P2;Temp;Humidity;BMP_temperature;BMP_pressure;BME280_temperature;BME280_humidity;BME280_pressure;Samples;Min_cycle;Max_cycle;Signal;HPM_P1;HPM_P2
2022/06/23 05:21:59;;;;;;;4.63;4.20;;;26.60;51.20;;;;;;3030490;46;20477;-91
2022/06/23 05:24:30;;;;;;;6.28;4.50;;;27.70;47.90;;;;;;3379792;42;20091;-89
2022/06/23 05:27:25;;;;;;;5.45;3.80;;;27.80;47.40;;;;;;3366552;42;20106;-88
2022/06/23 05:29:59;;;;;;;7.18;4.78;;;27.90;46.80;;;;;;3343825;42;20164;-88
2022/06/23 05:32:33;;;;;;;8.57;4.57;;;28.00;46.70;;;;;;3370656;42;20174;-90
2022/06/23 05:35:35;;;;;;;7.88;4.30;;;28.10;46.50;;;;;;3380853;42;20122;-90
2022/06/23 05:38:08;;;;;;;4.72;4.00;;;28.10;46.20;;;;;;3373834;42;20132;-91
2022/06/23 05:40:56;;;;;;;5.57;4.25;;;28.20;46.30;;;;;;3378752;42;20091;-90
2022/06/23 05:43:23;;;;;;;5.88;4.18;;;28.30;46.50;;;;;;3380231;42;20090;-93
2022/06/23 05:45:54;;;;;;;4.25;3.90;;;28.40;46.20;;;;;;3363236;42;20092;-88
2022/06/23 05:48:31;;;;;;;4.55;3.78;;;28.50;45.80;;;;;;3371136;42;20493;-91
2022/06/23 05:51:10;;;;;;;6.70;4.30;;;28.60;45.40;;;;;;3370713;42;20087;-88
2022/06/23 05:53:47;;;;;;;7.10;3.90;;;28.80;45.40;;;;;;3377837;42;20095;-88
2022/06/23 05:56:29;;;;;;;5.88;4.05;;;29.00;46.40;;;;;;3379610;42;20087;-89
2022/06/23 05:59:25;;;;;;;4.85;3.95;;;29.20;44.90;;;;;;3364215;42;20102;-89
2022/06/23 06:01:52;;;;;;;6.15;3.95;;;29.60;44.40;;;;;;3373403;42;20087;-91
2022/06/23 06:04:39;;;;;;;6.57;4.20;;;29.90;43.60;;;;;;3380688;42;20138;-89
2022/06/23 06:07:11;;;;;;;13.52;4.88;;;30.30;42.70;;;;;;3358516;42;20091;-92
2022/06/23 06:09:42;;;;;;;4.22;3.67;;;31.00;41.90;;;;;;3361572;42;20095;-94
2022/06/23 06:13:01;;;;;;;11.00;4.22;;;31.50;40.70;;;;;;3366027;42;20083;-94
2022/06/23 06:15:57;;;;;;;6.82;3.72;;;32.00;39.50;;;;;;3374360;42;20095;-93
2022/06/23 06:21:38;;;;;;;5.70;3.42;;;33.20;37.60;;;;;;3386013;42;20575;-91
2022/06/23 06:24:39;;;;;;;5.18;3.15;;;33.80;37.00;;;;;;3383050;42;20141;-91
2022/06/23 06:27:09;;;;;;;10.23;3.35;;;35.30;34.80;;;;;;3378530;42;20095;-91
2022/06/23 06:29:42;;;;;;;6.00;3.33;;;37.00;32.00;;;;;;3367773;42;20083;-91
2022/06/23 06:32:33;;;;;;;5.57;3.80;;;37.70;29.50;;;;;;3364179;42;20133;-92
2022/06/23 06:35:31;;;;;;;8.43;3.17;;;37.40;29.20;;;;;;3376040;42;20125;-84
2022/06/23 06:38:16;;;;;;;7.25;3.15;;;37.00;29.50;;;;;;3371164;42;20213;-89
2022/06/23 06:40:45;;;;;;;4.25;3.50;;;37.90;29.20;;;;;;3372439;42;21002;-88
2022/06/23 06:43:15;;;;;;;4.65;3.05;;;38.90;27.70;;;;;;3383228;42;20089;-92
2022/06/23 06:45:43;;;;;;;8.25;3.33;;;40.30;26.60;;;;;;3380712;42;20071;-87
2022/06/23 06:48:21;;;;;;;3.53;3.10;;;41.50;24.00;;;;;;3380599;42;20078;-89
2022/06/23 06:50:55;;;;;;;11.27;3.25;;;42.10;22.70;;;;;;3380344;42;20090;-90
2022/06/23 06:53:34;;;;;;;5.13;3.20;;;41.60;22.30;;;;;;3381818;42;20097;-91
2022/06/23 07:00:29;;;;;;;4.82;3.30;;;39.40;24.30;;;;;;3388455;42;20111;-88
2022/06/23 07:03:12;;;;;;;7.72;3.22;;;37.90;26.10;;;;;;3368158;42;20099;-88
2022/06/23 07:06:15;;;;;;;3.40;3.10;;;37.80;26.70;;;;;;3379230;42;20105;-88
2022/06/23 07:09:10;;;;;;;5.15;3.40;;;38.40;26.30;;;;;;3392216;42;20103;-89
2022/06/23 07:11:47;;;;;;;3.55;3.25;;;39.30;25.20;;;;;;3374322;42;20141;-93
2022/06/23 07:14:23;;;;;;;5.07;3.40;;;40.00;24.60;;;;;;3381877;42;20113;-91
2022/06/23 07:16:59;;;;;;;3.47;3.20;;;40.90;23.70;;;;;;3384440;42;20185;-91
2022/06/23 07:19:52;;;;;;;4.30;3.40;;;41.70;22.80;;;;;;3388845;42;20079;-89
2022/06/23 07:22:26;;;;;;;4.47;3.15;;;42.30;22.00;;;;;;3368318;42;20099;-90
2022/06/23 07:25:17;;;;;;;4.35;3.15;;;42.70;21.00;;;;;;3385317;42;20109;-92
2022/06/23 07:27:51;;;;;;;4.78;3.00;;;42.10;21.20;;;;;;3383666;42;20129;-88
2022/06/23 07:30:23;;;;;;;4.50;2.90;;;41.60;21.70;;;;;;3383276;42;20099;-93
2022/06/23 07:32:57;;;;;;;6.65;3.38;;;40.90;22.20;;;;;;3374927;42;20617;-88
2022/06/23 07:35:48;;;;;;;12.23;3.45;;;40.30;23.00;;;;;;3374826;42;20099;-90
2022/06/23 07:38:53;;;;;;;6.05;3.20;;;39.70;23.50;;;;;;3373146;42;20097;-90
2022/06/23 07:41:27;;;;;;;7.15;3.75;;;39.00;23.90;;;;;;3363719;42;20102;-91
2022/06/23 07:44:09;;;;;;;5.85;3.15;;;38.20;24.70;;;;;;3379626;42;20102;-88
2022/06/23 07:46:37;;;;;;;4.40;3.05;;;37.30;25.70;;;;;;3366205;42;20083;-91
2022/06/23 07:49:05;;;;;;;5.03;3.47;;;36.50;26.80;;;;;;3376044;42;20094;-90
2022/06/23 07:51:32;;;;;;;2.85;2.63;;;36.00;27.70;;;;;;3374638;42;20095;-88
2022/06/23 07:53:59;;;;;;;4.20;3.30;;;35.80;28.20;;;;;;3374816;42;20082;-90
2022/06/23 07:56:28;;;;;;;4.68;2.90;;;35.60;29.30;;;;;;3375223;42;20091;-90
2022/06/23 07:58:59;;;;;;;3.28;3.03;;;35.60;28.80;;;;;;3380151;42;20098;-87
2022/06/23 08:01:29;;;;;;;5.97;3.40;;;35.70;28.50;;;;;;3375817;42;20111;-88
2022/06/23 08:04:18;;;;;;;5.15;3.08;;;35.80;28.60;;;;;;3390459;42;20099;-88
2022/06/23 08:06:45;;;;;;;3.42;3.13;;;35.80;28.60;;;;;;3369001;42;20168;-90
2022/06/23 08:09:23;;;;;;;4.10;3.50;;;35.90;28.50;;;;;;3374468;42;20164;-88
2022/06/23 08:14:36;;;;;;;;;;;35.90;28.40;;;;;;3382824;42;20083;-92
2022/06/23 08:17:06;;;;;;;4.05;3.28;;;35.60;28.50;;;;;;3374721;42;20010;-93
2022/06/23 08:19:52;;;;;;;4.88;3.38;;;35.30;28.80;;;;;;3373100;42;20479;-90
2022/06/23 08:22:31;;;;;;;8.02;3.60;;;35.20;29.30;;;;;;3372887;42;20095;-88
2022/06/23 08:24:58;;;;;;;4.78;3.90;;;34.90;29.50;;;;;;3373315;42;20087;-93
2022/06/23 08:27:28;;;;;;;4.35;3.33;;;34.70;31.00;;;;;;3371842;42;20581;-89
2022/06/23 08:30:07;;;;;;;3.63;3.33;;;35.00;29.90;;;;;;3372419;42;20099;-90
2022/06/23 08:32:37;;;;;;;6.10;3.10;;;35.40;29.60;;;;;;3372027;42;20106;-89
2022/06/23 08:35:07;;;;;;;4.30;3.78;;;35.60;28.90;;;;;;3371975;42;20114;-91
2022/06/23 08:37:43;;;;;;;3.67;3.35;;;35.40;29.10;;;;;;3371973;42;20139;-89
2022/06/23 08:43:40;;;;;;;3.00;2.70;;;34.80;29.50;;;;;;3377336;42;20159;-90
